Time;durP1;ratioP1;P1;durP2;ratioP2;P2;SDS_P1;SDS_P2;PMS_P1;PMS_P2;Temp;Humidity;BMP_temperature;BMP_pressure;BME280_temperature;BME280_humidity;BME280_pressure;Samples;Min_cycle;Max_cycle;Signal;HPM_P1;HPM_P2
2023/09/13 00:00:47;;;;;;;33.35;22.98;;;;;;;19.06;100.00;100599.91;5049369;28;20553;-83
2023/09/13 00:03:14;;;;;;;34.80;24.33;;;;;;;18.94;100.00;100604.25;5050532;28;20547;-82
2023/09/13 00:05:42;;;;;;;36.28;22.27;;;;;;;19.10;100.00;100600.31;5058289;28;20132;-82
2023/09/13 00:08:08;;;;;;;34.25;23.60;;;;;;;19.03;100.00;100596.88;5050799;28;20053;-82
2023/09/13 00:10:35;;;;;;;35.45;25.85;;;;;;;18.95;100.00;100608.53;5048470;28;20069;-83
2023/09/13 00:13:02;;;;;;;41.78;28.05;;;;;;;18.86;100.00;100597.38;5043028;28;20084;-82
2023/09/13 00:15:29;;;;;;;43.65;27.00;;;;;;;19.02;100.00;100609.31;5045578;28;20080;-85
2023/09/13 00:17:56;;;;;;;40.42;26.58;;;;;;;18.99;100.00;100595.66;5055105;28;20087;-82
2023/09/13 00:20:23;;;;;;;44.85;27.80;;;;;;;18.96;100.00;100609.34;5056605;28;20052;-82
2023/09/13 00:22:49;;;;;;;38.80;27.15;;;;;;;18.96;100.00;100598.75;5036936;28;20076;-82
2023/09/13 00:25:16;;;;;;;46.15;27.65;;;;;;;18.85;100.00;100594.94;5061744;28;20136;-81
2023/09/13 00:27:43;;;;;;;42.97;27.00;;;;;;;18.87;100.00;100604.31;5063044;28;20079;-82
2023/09/13 00:30:10;;;;;;;42.20;26.85;;;;;;;18.88;100.00;100611.25;5051818;28;20109;-82
2023/09/13 00:32:38;;;;;;;39.17;26.25;;;;;;;18.89;100.00;100604.91;5053477;28;20077;-82
2023/09/13 00:35:06;;;;;;;41.70;26.63;;;;;;;18.88;100.00;100600.63;5052911;28;20113;-83
2023/09/13 00:37:32;;;;;;;42.28;26.85;;;;;;;18.79;100.00;100615.16;5054363;28;20391;-81
2023/09/13 00:39:59;;;;;;;38.42;25.27;;;;;;;18.82;100.00;100604.13;5041097;28;20112;-81
2023/09/13 00:42:25;;;;;;;38.30;26.05;;;;;;;18.86;100.00;100607.97;5055628;28;20080;-81
2023/09/13 00:44:52;;;;;;;39.22;25.83;;;;;;;18.84;100.00;100610.03;5062214;28;20485;-82
2023/09/13 00:47:19;;;;;;;38.58;25.80;;;;;;;18.86;100.00;100615.94;5059625;28;20109;-81
2023/09/13 00:49:48;;;;;;;47.42;28.95;;;;;;;18.93;100.00;100615.06;5045150;28;20156;-82
2023/09/13 00:52:15;;;;;;;41.65;29.00;;;;;;;18.95;100.00;100613.84;5055183;28;20049;-82
2023/09/13 00:54:42;;;;;;;43.30;27.55;;;;;;;18.96;100.00;100619.94;5063758;28;20080;-81
2023/09/13 00:57:09;;;;;;;38.53;23.17;;;;;;;18.93;100.00;100617.72;5047830;28;20080;-81
2023/09/13 00:59:36;;;;;;;34.17;20.85;;;;;;;18.82;100.00;100620.03;5056613;28;20048;-82
2023/09/13 01:02:03;;;;;;;38.90;22.80;;;;;;;18.82;100.00;100617.38;5045518;28;20111;-81
2023/09/13 01:04:31;;;;;;;41.45;25.15;;;;;;;18.85;100.00;100619.63;5064794;28;20557;-81
2023/09/13 01:06:59;;;;;;;43.65;26.83;;;;;;;18.93;100.00;100625.69;5046095;28;20530;-80
2023/09/13 01:09:26;;;;;;;38.05;25.25;;;;;;;18.84;100.00;100623.28;5057431;28;20128;-82
2023/09/13 01:11:53;;;;;;;39.35;24.80;;;;;;;19.01;100.00;100628.09;5060307;28;20084;-82
2023/09/13 01:14:21;;;;;;;43.38;25.38;;;;;;;18.99;100.00;100630.94;5052344;28;20049;-82
2023/09/13 01:16:52;;;;;;;41.92;25.55;;;;;;;19.03;100.00;100631.34;5052126;28;20496;-82
2023/09/13 01:25:05;;;;;;;38.92;24.13;;;;;;;18.94;100.00;100619.34;4297119;26;20049;-80
2023/09/13 01:28:10;;;;;;;43.00;24.92;;;;;;;18.84;100.00;100610.03;5013708;28;20478;-80
2023/09/13 01:30:46;;;;;;;42.47;22.92;;;;;;;18.69;100.00;100606.81;5047052;28;20056;-80
2023/09/13 01:33:13;;;;;;;44.00;24.30;;;;;;;18.78;100.00;100629.44;5049465;28;20132;-81
2023/09/13 01:35:39;;;;;;;41.08;25.15;;;;;;;18.79;100.00;100633.72;5048776;28;20046;-79
2023/09/13 01:38:12;;;;;;;37.03;23.20;;;;;;;18.71;100.00;100622.50;5038209;28;20092;-79
2023/09/13 01:40:45;;;;;;;41.95;23.83;;;;;;;18.67;100.00;100624.78;5046865;28;20056;-80
2023/09/13 01:43:12;;;;;;;38.05;23.02;;;;;;;18.63;100.00;100626.22;5042787;28;20053;-79
2023/09/13 01:46:06;;;;;;;41.85;25.13;;;;;;;18.66;100.00;100639.03;5042979;28;20045;-79
2023/09/13 01:48:43;;;;;;;43.80;24.48;;;;;;;18.49;100.00;100621.94;5041295;28;20096;-80
2023/09/13 01:51:10;;;;;;;39.83;22.73;;;;;;;18.58;100.00;100618.03;5034965;28;20057;-78
2023/09/13 01:53:46;;;;;;;41.55;23.90;;;;;;;18.73;100.00;100636.38;5045468;28;20045;-79
2023/09/13 01:56:16;;;;;;;43.42;24.35;;;;;;;18.68;100.00;100634.34;5040432;28;20041;-79
2023/09/13 01:58:46;;;;;;;40.67;22.98;;;;;;;18.64;100.00;100637.63;5047586;28;20056;-79
2023/09/13 02:01:18;;;;;;;43.72;24.27;;;;;;;18.66;100.00;100635.56;5046834;28;20045;-80
2023/09/13 02:04:06;;;;;;;47.05;25.63;;;;;;;18.56;100.00;100622.72;5050250;28;20060;-79
2023/09/13 02:06:32;;;;;;;45.05;25.40;;;;;;;18.63;100.00;100643.94;5038761;28;20045;-79
2023/09/13 02:09:06;;;;;;;51.53;26.25;;;;;;;18.62;100.00;100640.47;5038649;28;20616;-80
2023/09/13 02:11:40;;;;;;;53.78;25.80;;;;;;;18.70;100.00;100648.22;5038913;28;20046;-80
2023/09/13 02:14:16;;;;;;;45.92;26.15;;;;;;;18.71;100.00;100649.84;5049950;28;20060;-81
2023/09/13 02:16:53;;;;;;;49.90;27.25;;;;;;;18.70;100.00;100655.34;5043434;28;20042;-81
2023/09/13 02:19:34;;;;;;;45.30;28.13;;;;;;;18.95;100.00;100660.75;5052173;28;20076;-81
2023/09/13 02:22:07;;;;;;;48.55;27.00;;;;;;;18.62;100.00;100629.06;5048854;28;20049;-81
2023/09/13 02:25:05;;;;;;;45.63;26.80;;;;;;;18.57;100.00;100629.66;5038540;28;20053;-81
2023/09/13 02:27:34;;;;;;;50.00;27.17;;;;;;;18.65;100.00;100640.06;5048576;28;20051;-80
2023/09/13 02:30:13;;;;;;;49.20;28.00;;;;;;;18.63;100.00;100643.94;5049197;28;20057;-80
2023/09/13 02:32:56;;;;;;;48.85;27.65;;;;;;;18.73;100.00;100663.69;5050662;28;20049;-79
2023/09/13 02:35:51;;;;;;;;;;;;;;;;;;;;;
2023/09/13 02:38:44;;;;;;;56.05;29.33;;;;;;;18.50;100.00;100653.50;5056858;28;20241;-80
2023/09/13 02:41:25;;;;;;;57.78;29.88;;;;;;;18.65;100.00;100671.88;5051133;28;20137;-81
2023/09/13 02:44:12;;;;;;;58.67;31.27;;;;;;;18.61;100.00;100665.34;5037720;28;20523;-80
2023/09/13 02:46:38;;;;;;;68.82;32.50;;;;;;;18.63;100.00;100673.09;5030056;28;20054;-81
2023/09/13 02:49:09;;;;;;;64.40;32.70;;;;;;;18.67;100.00;100658.41;5044161;28;20053;-80
2023/09/13 02:51:40;;;;;;;62.15;33.95;;;;;;;18.74;100.00;100678.56;5055272;28;20046;-80
2023/09/13 02:54:07;;;;;;;65.88;32.55;;;;;;;18.62;100.00;100669.63;5044991;28;20057;-79
2023/09/13 02:56:34;;;;;;;63.17;34.88;;;;;;;18.57;100.00;100664.09;5035815;28;20103;-79
2023/09/13 02:59:07;;;;;;;71.07;37.05;;;;;;;18.65;100.00;100668.41;5034255;28;20469;-80
2023/09/13 03:01:35;;;;;;;78.70;39.28;;;;;;;18.62;100.00;100672.28;5035755;28;20099;-78
2023/09/13 03:04:04;;;;;;;78.63;38.83;;;;;;;18.71;100.00;100675.53;5032689;28;20057;-80
2023/09/13 03:10:03;;;;;;;85.43;39.13;;;;;;;18.72;100.00;100675.31;5023835;28;20515;-80
2023/09/13 03:12:33;;;;;;;82.32;39.92;;;;;;;18.71;100.00;100680.81;5042899;28;20045;-79
2023/09/13 03:17:56;;;;;;;77.88;38.13;;;;;;;18.90;100.00;100699.31;5029397;28;20053;-80
2023/09/13 03:20:24;;;;;;;86.28;41.30;;;;;;;18.89;100.00;100702.19;5041509;28;20053;-80
2023/09/13 03:23:15;;;;;;;87.03;40.88;;;;;;;18.94;100.00;100707.66;5049540;28;20608;-80
2023/09/13 03:25:51;;;;;;;84.55;40.97;;;;;;;18.87;100.00;100710.34;5034523;28;20072;-80
2023/09/13 03:28:18;;;;;;;86.40;42.38;;;;;;;18.85;100.00;100682.44;5036597;28;20554;-80
2023/09/13 03:31:10;;;;;;;89.80;41.22;;;;;;;18.96;100.00;100691.53;5036029;28;20045;-80
2023/09/13 03:33:37;;;;;;;95.72;43.60;;;;;;;18.87;100.00;100686.50;5045067;28;20138;-80
2023/09/13 03:36:13;;;;;;;93.05;42.78;;;;;;;18.80;100.00;100679.59;5037363;28;20445;-81
2023/09/13 03:38:46;;;;;;;94.85;43.03;;;;;;;18.95;100.00;100682.78;5045374;28;20045;-80
2023/09/13 03:47:00;;;;;;;91.25;43.95;;;;;;;19.03;100.00;100695.00;5035779;28;20057;-81
2023/09/13 03:49:27;;;;;;;93.25;42.13;;;;;;;19.09;100.00;100697.63;5031259;28;20045;-78
2023/09/13 03:51:53;;;;;;;91.03;42.20;;;;;;;19.08;100.00;100711.09;5031053;28;20140;-80
2023/09/13 03:54:22;;;;;;;97.00;45.88;;;;;;;19.16;100.00;100705.56;5036658;28;20559;-81
2023/09/13 03:56:52;;;;;;;106.88;46.60;;;;;;;19.02;100.00;100710.09;5037242;28;20045;-80
2023/09/13 03:59:19;;;;;;;103.65;47.67;;;;;;;18.89;100.00;100708.31;5054810;28;20073;-79
2023/09/13 04:01:45;;;;;;;98.63;48.97;;;;;;;18.96;100.00;100704.81;5045245;28;20048;-79
2023/09/13 04:04:12;;;;;;;110.43;49.42;;;;;;;18.89;100.00;100710.97;5031423;28;20152;-76
2023/09/13 04:06:39;;;;;;;101.60;47.33;;;;;;;18.95;100.00;100714.59;5039873;28;20057;-77
2023/09/13 04:09:06;;;;;;;106.43;48.88;;;;;;;18.87;100.00;100705.06;5031360;28;20049;-76
2023/09/13 04:11:37;;;;;;;105.57;48.17;;;;;;;18.96;100.00;100707.44;5031671;28;20053;-76
2023/09/13 04:14:05;;;;;;;105.80;49.83;;;;;;;18.94;100.00;100702.34;5040413;28;20060;-76
2023/09/13 04:16:33;;;;;;;120.60;54.90;;;;;;;18.95;100.00;100700.53;5037599;28;20051;-76
2023/09/13 04:18:59;;;;;;;107.40;50.25;;;;;;;18.86;100.00;100706.06;5042652;28;20140;-76
2023/09/13 04:21:27;;;;;;;103.43;49.75;;;;;;;18.89;100.00;100704.84;5046566;28;20083;-76
2023/09/13 04:23:54;;;;;;;103.88;48.70;;;;;;;18.92;100.00;100707.06;5046191;28;20096;-76
2023/09/13 04:26:40;;;;;;;109.10;51.80;;;;;;;18.98;100.00;100714.19;5041814;28;20510;-76
2023/09/13 04:29:07;;;;;;;108.35;50.97;;;;;;;18.94;100.00;100717.47;5034709;28;20052;-77
2023/09/13 04:31:34;;;;;;;111.38;52.75;;;;;;;18.83;100.00;100713.63;5034356;28;20050;-77
2023/09/13 04:34:03;;;;;;;102.88;50.95;;;;;;;18.82;100.00;100710.16;5042947;28;20470;-79
2023/09/13 04:36:31;;;;;;;107.13;50.88;;;;;;;18.76;100.00;100703.03;5045226;28;20049;-77
2023/09/13 04:38:57;;;;;;;104.47;50.33;;;;;;;18.71;100.00;100704.69;5046844;28;20045;-77
2023/09/13 04:41:26;;;;;;;97.68;47.90;;;;;;;18.74;100.00;100702.44;5041843;28;20108;-77
2023/09/13 04:43:54;;;;;;;98.75;48.72;;;;;;;18.69;100.00;100706.72;5035282;28;20056;-77
2023/09/13 04:46:20;;;;;;;96.47;50.05;;;;;;;18.64;100.00;100706.53;5043662;28;20119;-77
2023/09/13 04:48:47;;;;;;;98.07;47.25;;;;;;;18.59;100.00;100707.13;5043925;28;20446;-76
2023/09/13 04:51:14;;;;;;;97.97;46.35;;;;;;;18.54;100.00;100713.03;5040817;28;20135;-77
2023/09/13 04:53:40;;;;;;;93.05;45.80;;;;;;;18.52;100.00;100714.25;5042739;28;20048;-77
2023/09/13 04:56:07;;;;;;;99.28;47.08;;;;;;;18.48;100.00;100710.38;5042471;28;20067;-77
2023/09/13 04:58:34;;;;;;;97.63;46.70;;;;;;;18.41;100.00;100722.84;5038751;28;20469;-78
2023/09/13 05:01:02;;;;;;;104.90;48.42;;;;;;;18.54;100.00;100728.94;5036323;28;20063;-77
2023/09/13 05:03:35;;;;;;;109.20;46.75;;;;;;;18.41;100.00;100728.16;5049557;28;20049;-79
2023/09/13 05:06:01;;;;;;;104.93;48.28;;;;;;;18.40;100.00;100739.75;5038015;28;20073;-78
2023/09/13 05:08:33;;;;;;;99.28;47.92;;;;;;;18.28;100.00;100738.75;5045117;28;20095;-78
2023/09/13 05:11:08;;;;;;;107.90;49.40;;;;;;;18.24;100.00;100744.44;5040815;28;20076;-79
2023/09/13 05:17:35;;;;;;;115.20;48.95;;;;;;;18.35;100.00;100750.16;4883312;29;20051;-78
2023/09/13 05:20:16;;;;;;;105.10;48.47;;;;;;;18.44;100.00;100754.19;4950662;29;20055;-78
2023/09/13 05:23:01;;;;;;;112.10;50.00;;;;;;;18.41;100.00;100749.34;5007571;28;20049;-78
2023/09/13 05:25:49;;;;;;;107.50;49.10;;;;;;;18.39;100.00;100746.09;5040833;28;20049;-78
2023/09/13 05:28:24;;;;;;;111.68;50.45;;;;;;;18.39;100.00;100764.63;5044395;28;20126;-78
2023/09/13 05:30:54;;;;;;;104.57;48.58;;;;;;;18.35;100.00;100750.16;5042153;28;20053;-78
2023/09/13 05:36:47;;;;;;;95.85;43.33;;;;;;;18.51;100.00;100752.38;5031267;28;20396;-78
2023/09/13 05:40:06;;;;;;;80.67;40.03;;;;;;;18.44;100.00;100755.03;5041709;28;20072;-79
2023/09/13 05:43:13;;;;;;;73.32;38.65;;;;;;;18.36;100.00;100751.78;5033443;28;20065;-78
2023/09/13 05:52:21;;;;;;;64.82;35.78;;;;;;;18.42;100.00;100754.44;5102504;23;20406;-78
2023/09/13 05:55:37;;;;;;;66.78;35.60;;;;;;;18.44;100.00;100770.91;5050644;28;20048;-78
2023/09/13 05:58:30;;;;;;;72.32;36.35;;;;;;;18.45;100.00;100766.44;5043024;28;20048;-78
2023/09/13 06:01:24;;;;;;;66.57;35.05;;;;;;;18.49;100.00;100791.50;5035727;28;20100;-78
2023/09/13 06:07:25;;;;;;;59.97;33.95;;;;;;;18.41;100.00;100789.91;5043357;28;20134;-78
2023/09/13 06:13:17;;;;;;;55.90;33.10;;;;;;;18.43;100.00;100795.00;4994193;28;20083;-78
2023/09/13 06:16:28;;;;;;;53.95;31.13;;;;;;;18.38;100.00;100794.78;5045610;28;20525;-78
2023/09/13 06:23:05;;;;;;;65.38;33.03;;;;;;;18.45;100.00;100787.63;4956121;28;20042;-78
2023/09/13 06:29:46;;;;;;;61.03;32.15;;;;;;;18.49;100.00;100810.06;4917794;28;20073;-78
2023/09/13 06:33:03;;;;;;;64.22;33.63;;;;;;;18.42;100.00;100796.81;4907475;29;20048;-78
2023/09/13 06:39:36;;;;;;;64.85;32.13;;;;;;;18.47;100.00;100806.78;4959378;28;20059;-79
2023/09/13 06:49:25;;;;;;;66.35;33.63;;;;;;;18.75;100.00;100820.69;4926661;28;20047;-79
2023/09/13 06:52:00;;;;;;;65.22;33.10;;;;;;;18.74;100.00;100818.25;5004675;28;20088;-78
2023/09/13 06:55:16;;;;;;;60.58;33.22;;;;;;;18.73;100.00;100827.22;4992483;28;20063;-79
2023/09/13 06:58:14;;;;;;;64.57;33.65;;;;;;;18.61;100.00;100829.66;5042179;28;20559;-79
2023/09/13 07:01:00;;;;;;;66.22;35.05;;;;;;;18.70;100.00;100832.94;5038330;28;20499;-79
2023/09/13 07:03:27;;;;;;;56.72;33.33;;;;;;;18.50;100.00;100809.03;5052118;28;20533;-79
2023/09/13 07:06:00;;;;;;;72.00;35.65;;;;;;;18.71;100.00;100838.03;5036725;28;20048;-78
2023/09/13 07:08:29;;;;;;;79.10;35.50;;;;;;;18.67;100.00;100838.63;5046672;28;20092;-78
2023/09/13 07:10:56;;;;;;;80.80;36.40;;;;;;;18.68;100.00;100830.47;5031908;28;20053;-78
2023/09/13 07:13:34;;;;;;;62.00;34.03;;;;;;;18.70;100.00;100825.78;5051024;28;20129;-78
2023/09/13 07:16:00;;;;;;;61.83;32.78;;;;;;;18.75;100.00;100839.25;5043784;28;20124;-78
2023/09/13 07:18:30;;;;;;;67.78;32.72;;;;;;;18.85;100.00;100844.97;5050130;28;20535;-79
2023/09/13 07:21:17;;;;;;;76.85;34.10;;;;;;;18.86;100.00;100833.34;5052636;28;20063;-79
2023/09/13 07:24:04;;;;;;;78.43;33.53;;;;;;;18.78;100.00;100836.19;5050952;28;20044;-79
2023/09/13 07:26:55;;;;;;;67.35;34.20;;;;;;;18.86;100.00;100841.28;5053608;28;20049;-79
2023/09/13 07:29:22;;;;;;;57.05;30.98;;;;;;;18.89;100.00;100832.94;5036189;28;20084;-79
2023/09/13 07:31:48;;;;;;;67.78;34.88;;;;;;;18.88;100.00;100849.06;5033915;28;20099;-78
2023/09/13 07:34:24;;;;;;;58.33;32.85;;;;;;;19.02;100.00;100850.66;5053418;28;20292;-79
2023/09/13 07:36:52;;;;;;;57.88;31.70;;;;;;;19.04;100.00;100835.34;5060772;28;20045;-79
2023/09/13 07:39:23;;;;;;;57.35;31.95;;;;;;;19.14;100.00;100861.44;5051661;28;20429;-79
2023/09/13 07:42:04;;;;;;;44.58;29.52;;;;;;;19.12;100.00;100842.28;5058168;28;20108;-79
2023/09/13 07:44:39;;;;;;;53.63;31.65;;;;;;;19.25;100.00;100847.56;5032357;28;20075;-79
2023/09/13 07:47:13;;;;;;;51.50;30.20;;;;;;;19.84;100.00;100838.63;5032965;28;20053;-78
2023/09/13 07:49:44;;;;;;;46.40;27.75;;;;;;;20.40;100.00;100853.81;5047910;28;20495;-79
2023/09/13 07:52:14;;;;;;;46.97;28.00;;;;;;;20.98;100.00;100849.06;5039386;28;20136;-79
2023/09/13 07:54:44;;;;;;;44.83;27.90;;;;;;;21.24;100.00;100836.56;5045215;28;20045;-79
2023/09/13 07:57:16;;;;;;;65.93;30.05;;;;;;;20.95;100.00;100822.09;5050351;28;20175;-79
2023/09/13 07:59:43;;;;;;;56.22;27.85;;;;;;;20.58;100.00;100834.47;5051863;28;20476;-79
2023/09/13 08:02:15;;;;;;;57.75;27.33;;;;;;;20.35;100.00;100851.78;5051854;28;20103;-79
2023/09/13 08:04:41;;;;;;;55.63;26.40;;;;;;;20.07;100.00;100846.84;5051092;28;20053;-78
2023/09/13 08:07:19;;;;;;;57.58;26.23;;;;;;;20.13;100.00;100846.00;5037636;28;20581;-77
2023/09/13 08:09:48;;;;;;;38.70;23.33;;;;;;;20.23;100.00;100858.00;5046780;28;20067;-78
2023/09/13 08:12:20;;;;;;;37.67;23.80;;;;;;;20.03;100.00;100850.97;5034060;28;20113;-80
2023/09/13 08:14:51;;;;;;;36.35;22.60;;;;;;;20.00;100.00;100856.69;5037174;28;20095;-80
2023/09/13 08:17:20;;;;;;;39.28;24.00;;;;;;;20.04;100.00;100849.13;5030582;28;20130;-79
2023/09/13 08:19:48;;;;;;;37.72;22.40;;;;;;;19.95;100.00;100843.22;5035641;28;20096;-78
2023/09/13 08:22:20;;;;;;;32.13;20.02;;;;;;;19.85;100.00;100837.56;5043642;28;20053;-79
2023/09/13 08:24:46;;;;;;;28.58;19.40;;;;;;;19.95;100.00;100871.63;5050451;28;20451;-80
2023/09/13 08:27:20;;;;;;;31.50;20.85;;;;;;;19.90;100.00;100866.94;5031132;28;20053;-79
2023/09/13 08:29:58;;;;;;;33.85;20.83;;;;;;;20.05;100.00;100879.97;5038691;28;20135;-79
2023/09/13 08:32:30;;;;;;;36.30;20.60;;;;;;;19.94;100.00;100872.66;5031285;28;20434;-80
2023/09/13 08:35:03;;;;;;;36.47;21.13;;;;;;;19.93;100.00;100887.78;5030781;28;20095;-78
2023/09/13 08:37:43;;;;;;;38.65;21.88;;;;;;;19.87;100.00;100891.28;5030682;28;20053;-79
2023/09/13 08:40:32;;;;;;;34.90;20.90;;;;;;;19.76;100.00;100892.78;5049794;28;20065;-79
2023/09/13 08:43:04;;;;;;;36.00;20.42;;;;;;;19.70;100.00;100888.28;5032589;28;20088;-78
2023/09/13 08:45:45;;;;;;;35.13;19.92;;;;;;;19.89;100.00;100915.78;5036140;28;20100;-79
2023/09/13 08:48:20;;;;;;;34.38;19.90;;;;;;;19.91;100.00;100900.44;5051027;28;20065;-79
2023/09/13 08:50:53;;;;;;;35.53;19.77;;;;;;;19.73;100.00;100895.03;5049595;28;20110;-78
2023/09/13 08:53:54;;;;;;;55.65;23.05;;;;;;;19.77;100.00;100902.38;5039273;28;20049;-78
2023/09/13 08:56:24;;;;;;;33.85;20.02;;;;;;;20.01;100.00;100927.38;5032878;28;20081;-79
2023/09/13 08:58:52;;;;;;;39.70;20.75;;;;;;;20.10;100.00;100906.72;5051229;28;20081;-79
2023/09/13 09:01:20;;;;;;;33.67;19.45;;;;;;;20.09;100.00;100923.69;5053890;28;20053;-79
2023/09/13 09:03:49;;;;;;;34.28;20.45;;;;;;;20.17;100.00;100913.63;5055978;28;20118;-79
2023/09/13 09:06:19;;;;;;;31.38;19.20;;;;;;;20.13;100.00;100923.03;5048239;28;20052;-80
2023/09/13 09:08:51;;;;;;;30.83;18.42;;;;;;;20.17;100.00;100920.78;5055531;28;20168;-77
2023/09/13 09:11:23;;;;;;;37.85;19.08;;;;;;;20.23;100.00;100916.47;5034478;28;20525;-77
2023/09/13 09:13:58;;;;;;;30.05;19.15;;;;;;;20.34;100.00;100931.72;5049058;28;20045;-76
2023/09/13 09:16:31;;;;;;;27.48;17.02;;;;;;;20.23;100.00;100919.94;5054294;28;20076;-79
2023/09/13 09:19:04;;;;;;;31.13;17.83;;;;;;;20.21;100.00;100935.28;5048290;28;20568;-79
2023/09/13 09:21:32;;;;;;;28.77;17.75;;;;;;;20.19;100.00;100938.16;5056492;28;20111;-79
2023/09/13 09:23:59;;;;;;;27.10;16.48;;;;;;;20.18;100.00;100928.53;5056823;28;20053;-78
2023/09/13 09:26:27;;;;;;;27.80;17.70;;;;;;;20.36;100.00;100929.66;5055699;28;20534;-78
2023/09/13 09:28:54;;;;;;;28.05;16.80;;;;;;;20.39;100.00;100934.59;5058626;28;20107;-80
2023/09/13 09:31:24;;;;;;;28.17;16.75;;;;;;;20.35;100.00;100933.34;5054563;28;20109;-79
2023/09/13 09:34:02;;;;;;;30.33;16.63;;;;;;;20.28;100.00;100930.75;5039388;28;20081;-79
2023/09/13 09:36:34;;;;;;;32.28;18.38;;;;;;;20.35;100.00;100938.66;5059080;28;20052;-79
2023/09/13 09:39:02;;;;;;;31.07;17.13;;;;;;;20.35;99.81;100928.84;5053214;28;20045;-79
2023/09/13 09:41:39;;;;;;;26.98;17.15;;;;;;;20.47;100.00;100926.38;5035174;28;20137;-79
2023/09/13 09:44:07;;;;;;;31.30;19.08;;;;;;;20.44;100.00;100937.41;5034266;28;20471;-79
2023/09/13 09:46:34;;;;;;;26.67;17.40;;;;;;;20.50;99.66;100933.91;5034460;28;20096;-79
2023/09/13 09:49:02;;;;;;;29.65;18.48;;;;;;;20.56;99.17;100935.72;5036658;28;20480;-79
2023/09/13 09:51:30;;;;;;;34.10;18.60;;;;;;;20.70;98.77;100929.28;5037966;28;20049;-79
2023/09/13 09:53:57;;;;;;;34.10;17.73;;;;;;;20.79;98.12;100929.84;5038477;28;20087;-79
2023/09/13 09:56:24;;;;;;;33.08;16.38;;;;;;;20.82;96.97;100924.88;5039285;28;20452;-79
2023/09/13 09:58:52;;;;;;;42.38;15.85;;;;;;;21.02;95.88;100932.72;5038665;28;20073;-80
2023/09/13 10:01:19;;;;;;;35.40;17.17;;;;;;;21.15;94.95;100923.81;5042500;28;20528;-79
2023/09/13 10:03:46;;;;;;;43.90;16.70;;;;;;;21.12;95.34;100935.72;5041313;28;20046;-79
2023/09/13 10:06:14;;;;;;;28.02;15.68;;;;;;;20.91;95.26;100935.28;5037788;28;20136;-79
2023/09/13 10:08:42;;;;;;;19.33;13.27;;;;;;;20.92;94.64;100926.25;5046161;28;20152;-80
2023/09/13 10:11:10;;;;;;;21.92;13.45;;;;;;;20.82;95.30;100938.19;5058068;28;20096;-79
2023/09/13 10:13:38;;;;;;;20.25;13.70;;;;;;;20.61;95.21;100930.56;5059708;28;20113;-79
2023/09/13 10:16:07;;;;;;;19.80;13.10;;;;;;;20.64;95.16;100938.13;5057855;28;20181;-79
2023/09/13 10:18:38;;;;;;;20.48;13.98;;;;;;;20.61;94.98;100935.09;5059266;28;20088;-79
2023/09/13 10:21:06;;;;;;;19.90;13.07;;;;;;;20.77;95.89;100940.72;5048810;28;20044;-79
2023/09/13 10:23:39;;;;;;;20.38;13.80;;;;;;;20.93;95.39;100941.19;5057452;28;20061;-79
2023/09/13 10:26:09;;;;;;;20.88;13.23;;;;;;;21.00;95.39;100941.97;5057660;28;20049;-80
2023/09/13 10:28:39;;;;;;;21.55;13.60;;;;;;;21.10;95.47;100936.97;5057225;28;20049;-80
2023/09/13 10:31:16;;;;;;;19.35;13.45;;;;;;;21.46;95.25;100929.06;5057671;28;20080;-79
2023/09/13 10:33:45;;;;;;;18.38;13.23;;;;;;;21.46;94.11;100925.59;5039892;28;20049;-79
2023/09/13 10:36:21;;;;;;;19.88;13.75;;;;;;;21.62;93.01;100924.22;5035690;28;20541;-79
2023/09/13 10:38:58;;;;;;;18.05;13.60;;;;;;;21.58;92.19;100917.69;5036353;28;20521;-79
2023/09/13 10:41:31;;;;;;;21.65;12.23;;;;;;;21.96;91.91;100912.94;5039182;28;20095;-79
2023/09/13 10:43:58;;;;;;;21.20;12.23;;;;;;;21.75;90.38;100913.38;5038086;28;20084;-79
2023/09/13 10:46:27;;;;;;;20.10;12.23;;;;;;;21.83;90.23;100923.75;5050203;28;20077;-79
2023/09/13 10:48:54;;;;;;;18.50;12.38;;;;;;;21.75;90.15;100924.84;5055125;28;20124;-79
2023/09/13 10:51:21;;;;;;;18.60;12.50;;;;;;;21.88;89.99;100929.22;5054717;28;20132;-79
2023/09/13 10:53:48;;;;;;;15.05;10.30;;;;;;;22.36;89.37;100939.09;5055433;28;20131;-79
2023/09/13 10:56:16;;;;;;;18.05;11.60;;;;;;;22.62;87.95;100925.41;5055337;28;20052;-79
2023/09/13 10:58:45;;;;;;;17.60;10.27;;;;;;;22.89;86.04;100919.69;5039828;28;20136;-79
2023/09/13 11:01:13;;;;;;;18.00;10.52;;;;;;;22.57;86.43;100930.59;5034794;28;20059;-79
2023/09/13 11:03:42;;;;;;;17.90;11.00;;;;;;;22.52;87.53;100936.63;5035076;28;20503;-79
2023/09/13 11:06:10;;;;;;;38.55;12.88;;;;;;;22.62;87.31;100941.41;5054341;28;20057;-79
2023/09/13 11:08:37;;;;;;;23.90;11.60;;;;;;;22.54;87.95;100933.72;5056157;28;20136;-79
2023/09/13 11:11:08;;;;;;;16.75;11.35;;;;;;;22.30;88.29;100937.34;5055371;28;20137;-79
2023/09/13 11:13:35;;;;;;;16.58;11.13;;;;;;;22.16;88.10;100931.38;5040390;28;20136;-79
2023/09/13 11:16:04;;;;;;;18.23;11.23;;;;;;;22.08;88.76;100940.50;5034694;28;20519;-79
2023/09/13 11:18:31;;;;;;;15.68;10.52;;;;;;;22.11;88.81;100940.06;5034172;28;20518;-79
2023/09/13 11:21:00;;;;;;;13.27;9.65;;;;;;;22.14;88.09;100928.94;5034343;28;20053;-79
2023/09/13 11:23:42;;;;;;;15.48;9.50;;;;;;;22.55;86.49;100924.69;5032612;28;20080;-79
2023/09/13 11:26:13;;;;;;;17.65;9.65;;;;;;;22.98;85.70;100927.13;5034121;28;20136;-79
2023/09/13 11:28:48;;;;;;;14.80;9.60;;;;;;;23.10;85.79;100927.13;5041213;28;20095;-79
2023/09/13 11:31:21;;;;;;;13.35;9.82;;;;;;;23.16;84.61;100931.53;5042970;28;20061;-79
2023/09/13 11:33:55;;;;;;;13.27;9.73;;;;;;;22.98;85.23;100942.31;5035298;28;20442;-79
2023/09/13 11:36:25;;;;;;;16.35;10.45;;;;;;;22.59;86.61;100960.53;5048256;28;20044;-80
2023/09/13 11:38:53;;;;;;;17.58;10.82;;;;;;;22.20;88.45;100967.22;5054559;28;20056;-80
2023/09/13 11:41:20;;;;;;;19.17;9.93;;;;;;;22.12;87.94;100965.66;5054598;28;20052;-80
2023/09/13 11:43:50;;;;;;;20.42;10.60;;;;;;;22.02;87.89;100960.03;5054759;28;20041;-80
2023/09/13 11:46:19;;;;;;;21.45;11.15;;;;;;;22.15;87.46;100957.22;5054294;28;20049;-80
2023/09/13 11:48:49;;;;;;;18.70;11.43;;;;;;;21.95;88.91;100977.09;5054366;28;20080;-79
2023/09/13 11:51:18;;;;;;;16.33;9.50;;;;;;;21.73;89.89;101000.72;5054109;28;20088;-80
2023/09/13 11:53:49;;;;;;;6.93;5.22;;;;;;;20.84;93.98;101013.25;5054140;28;20136;-79
2023/09/13 11:56:36;;;;;;;5.68;4.60;;;;;;;20.53;97.59;101026.53;5054578;28;20091;-79
2023/09/13 11:59:02;;;;;;;7.53;4.65;;;;;;;20.10;100.00;101051.00;5053464;28;20049;-79
2023/09/13 12:01:30;;;;;;;7.18;5.03;;;;;;;19.88;100.00;101042.44;5053697;28;20214;-79
2023/09/13 12:03:59;;;;;;;8.55;5.00;;;;;;;19.52;100.00;101050.84;5042007;28;20049;-80
2023/09/13 12:06:26;;;;;;;5.53;4.03;;;;;;;19.31;100.00;101063.50;5043712;28;20581;-79
2023/09/13 12:08:55;;;;;;;4.95;3.72;;;;;;;19.11;100.00;101064.25;5050367;28;20059;-79
2023/09/13 12:11:23;;;;;;;3.92;3.45;;;;;;;18.82;100.00;101065.44;5040025;28;20053;-79
2023/09/13 12:13:52;;;;;;;5.22;3.90;;;;;;;18.71;100.00;101068.66;5039415;28;20128;-79
2023/09/13 12:16:19;;;;;;;5.00;4.50;;;;;;;18.68;100.00;101062.94;5038976;28;20053;-78
2023/09/13 12:18:46;;;;;;;5.95;5.25;;;;;;;18.76;100.00;101062.75;5043792;28;20072;-78
2023/09/13 12:21:14;;;;;;;7.93;6.70;;;;;;;19.06;100.00;101061.41;5050864;28;20140;-78
2023/09/13 12:23:42;;;;;;;8.52;7.53;;;;;;;18.98;100.00;101068.72;5044327;28;20467;-78
2023/09/13 12:26:12;;;;;;;10.27;9.27;;;;;;;18.94;100.00;101062.19;5035708;28;20509;-80